Time;durP1;ratioP1;P1;durP2;ratioP2;P2;SDS_P1;SDS_P2;PMS_P1;PMS_P2;Temp;Humidity;BMP_temperature;BMP_pressure;BME280_temperature;BME280_humidity;BME280_pressure;Samples;Min_cycle;Max_cycle;Signal;HPM_P1;HPM_P2
2021/04/25 00:01:53;;;;;;;17.30;7.55;;;;;;;9.12;44.73;102697.75;4926458;28;123751;-72
2021/04/25 00:04:20;;;;;;;16.92;7.47;;;;;;;9.09;45.51;102695.13;4928172;28;113615;-73
2021/04/25 00:06:46;;;;;;;15.45;7.60;;;;;;;9.03;45.87;102695.19;4904027;28;114427;-73
2021/04/25 00:09:13;;;;;;;13.75;7.30;;;;;;;9.00;45.63;102689.94;4910591;28;124880;-72
2021/04/25 00:11:40;;;;;;;14.80;7.53;;;;;;;8.98;45.80;102696.13;4899851;28;122569;-74
2021/04/25 00:14:07;;;;;;;16.40;7.53;;;;;;;8.94;45.68;102696.13;4913261;28;115240;-73
2021/04/25 00:16:34;;;;;;;15.45;7.68;;;;;;;8.92;45.92;102697.06;4913275;28;114933;-71
2021/04/25 00:19:04;;;;;;;17.63;6.90;;;;;;;8.90;45.74;102690.91;4923727;28;123025;-73
2021/04/25 00:21:31;;;;;;;12.65;7.32;;;;;;;8.89;46.09;102691.78;4900173;28;123960;-74
2021/04/25 00:24:00;;;;;;;13.43;7.40;;;;;;;8.85;46.11;102696.22;4926560;28;113788;-73
2021/04/25 00:26:28;;;;;;;13.18;7.20;;;;;;;8.84;46.17;102698.88;4903363;28;114190;-73
2021/04/25 00:28:55;;;;;;;12.55;7.40;;;;;;;8.82;46.05;102695.38;4908595;28;124129;-73
2021/04/25 00:31:21;;;;;;;13.68;6.78;;;;;;;8.80;46.07;102681.28;4931999;28;124417;-73
2021/04/25 00:33:48;;;;;;;18.13;7.45;;;;;;;8.80;46.09;102689.22;4900427;28;114437;-73
2021/04/25 00:36:15;;;;;;;16.02;7.13;;;;;;;8.77;46.32;102688.34;4913699;28;114149;-74
2021/04/25 00:38:42;;;;;;;18.50;7.55;;;;;;;8.76;46.31;102686.63;4925691;28;123967;-74
2021/04/25 00:41:09;;;;;;;17.00;7.60;;;;;;;8.73;46.58;102691.91;4911632;28;124519;-73
2021/04/25 00:43:36;;;;;;;17.40;7.78;;;;;;;8.70;46.68;102691.94;4914205;28;114564;-73
2021/04/25 00:46:02;;;;;;;16.63;7.53;;;;;;;8.67;46.36;102697.25;4925716;28;113805;-74
2021/04/25 00:48:29;;;;;;;19.23;7.72;;;;;;;8.65;46.87;102688.47;4914527;28;124025;-74
2021/04/25 00:50:59;;;;;;;15.77;7.57;;;;;;;8.62;46.76;102693.75;4903595;28;123808;-74
2021/04/25 00:53:26;;;;;;;16.73;7.88;;;;;;;8.57;47.13;102691.16;4897225;28;114128;-74
2021/04/25 00:55:53;;;;;;;12.30;7.28;;;;;;;8.55;47.21;102694.66;4900612;28;114104;-74
2021/04/25 00:58:20;;;;;;;13.38;7.85;;;;;;;8.50;47.08;102694.72;4908761;28;124528;-74
2021/04/25 01:00:47;;;;;;;18.70;7.57;;;;;;;8.48;47.08;102691.22;4902999;28;122250;-74
2021/04/25 01:03:18;;;;;;;17.15;7.50;;;;;;;8.45;47.25;102690.34;4918250;28;115262;-74
2021/04/25 01:05:45;;;;;;;14.15;7.25;;;;;;;8.43;46.98;102698.28;4901380;28;113955;-74
2021/04/25 01:08:13;;;;;;;17.63;8.38;;;;;;;8.42;47.36;102700.91;4899767;28;123732;-74
2021/04/25 01:10:40;;;;;;;15.73;7.68;;;;;;;8.38;47.60;102695.66;4908956;28;123734;-73
2021/04/25 01:13:06;;;;;;;17.20;8.45;;;;;;;8.35;47.42;102698.28;4916453;28;114793;-74
2021/04/25 01:15:33;;;;;;;12.18;7.47;;;;;;;8.34;47.46;102696.56;4915479;28;114322;-74
2021/04/25 01:18:00;;;;;;;14.52;7.65;;;;;;;8.32;47.75;102695.66;4900292;28;123108;-74
2021/04/25 01:20:27;;;;;;;19.23;7.85;;;;;;;8.29;47.47;102690.41;4908494;28;123582;-73
2021/04/25 01:22:53;;;;;;;19.40;7.82;;;;;;;8.28;47.25;102699.22;4927651;28;114213;-75
2021/04/25 01:25:22;;;;;;;16.30;7.82;;;;;;;8.25;47.26;102693.97;4917729;28;114045;-74
2021/04/25 01:27:49;;;;;;;12.80;6.85;;;;;;;8.23;47.46;102690.47;4917734;28;124876;-73
2021/04/25 01:30:26;;;;;;;16.35;7.95;;;;;;;8.18;47.49;102687.84;4916657;28;124698;-74
2021/04/25 01:32:54;;;;;;;16.63;8.25;;;;;;;8.17;47.29;102694.00;4906975;28;113264;-74
2021/04/25 01:35:23;;;;;;;14.15;7.88;;;;;;;8.14;47.74;102690.50;4915446;28;113977;-74
2021/04/25 01:37:52;;;;;;;13.98;7.68;;;;;;;8.11;47.68;102685.22;4917086;28;123987;-73
2021/04/25 01:40:20;;;;;;;14.35;7.22;;;;;;;8.09;48.00;102693.16;4911647;28;122650;-73
2021/04/25 01:42:47;;;;;;;15.93;7.47;;;;;;;8.08;47.60;102690.50;4916080;28;114438;-73
2021/04/25 01:45:18;;;;;;;15.65;7.55;;;;;;;8.06;47.53;102676.44;4913431;28;114068;-72
2021/04/25 01:47:50;;;;;;;13.57;7.18;;;;;;;8.06;48.00;102687.00;4913139;28;123870;-73
2021/04/25 01:50:20;;;;;;;12.45;7.28;;;;;;;8.06;48.06;102680.00;4916334;28;122950;-74
2021/04/25 01:52:48;;;;;;;14.25;6.97;;;;;;;8.10;47.95;102683.47;4916508;28;114832;-74
2021/04/25 01:55:16;;;;;;;15.65;7.85;;;;;;;8.13;47.99;102684.31;4899992;28;113845;-74
2021/04/25 01:57:44;;;;;;;16.92;7.63;;;;;;;8.17;48.21;102686.09;4888786;28;124430;-74
2021/04/25 02:00:16;;;;;;;18.67;7.72;;;;;;;8.21;48.37;102676.38;4919476;28;124264;-74
2021/04/25 02:02:44;;;;;;;15.10;7.57;;;;;;;8.25;48.19;102680.78;4900075;28;114981;-74
2021/04/25 02:05:12;;;;;;;13.10;6.85;;;;;;;8.29;47.77;102676.34;4912360;28;113927;-74
2021/04/25 02:07:40;;;;;;;10.55;6.43;;;;;;;8.30;48.10;102678.94;4912460;28;123804;-73
2021/04/25 02:10:07;;;;;;;12.77;6.68;;;;;;;8.31;47.60;102672.81;4895770;28;123883;-73
2021/04/25 02:12:35;;;;;;;12.32;6.38;;;;;;;8.32;47.90;102674.53;4917271;28;114583;-74
2021/04/25 02:15:06;;;;;;;13.10;6.82;;;;;;;8.32;47.51;102669.25;4919063;28;114403;-74
2021/04/25 02:17:34;;;;;;;11.55;6.30;;;;;;;8.34;47.64;102672.78;4920074;28;124303;-74
2021/04/25 02:20:01;;;;;;;14.00;6.53;;;;;;;8.35;47.43;102674.53;4909725;28;124299;-73
2021/04/25 02:22:28;;;;;;;12.80;6.63;;;;;;;8.35;46.94;102679.81;4903229;28;113272;-73
2021/04/25 02:24:55;;;;;;;12.40;6.35;;;;;;;8.32;47.25;102674.53;4920301;28;114101;-74
2021/04/25 02:27:22;;;;;;;15.73;7.10;;;;;;;8.31;46.95;102678.09;4917034;28;123839;-73
2021/04/25 02:29:49;;;;;;;10.80;5.95;;;;;;;8.28;47.19;102680.72;4897028;28;124635;-74
2021/04/25 02:32:16;;;;;;;11.38;6.60;;;;;;;8.26;46.77;102679.00;4914804;28;114762;-73
2021/04/25 02:34:42;;;;;;;14.80;7.15;;;;;;;8.22;46.90;102680.78;4915154;28;114108;-73
2021/04/25 02:37:10;;;;;;;15.50;7.97;;;;;;;8.20;47.00;102682.56;4915238;28;123878;-73
2021/04/25 02:39:36;;;;;;;14.68;6.90;;;;;;;8.18;47.11;102681.69;4898467;28;123724;-74
2021/04/25 02:42:03;;;;;;;13.45;6.80;;;;;;;8.13;47.12;102683.47;4916170;28;115215;-74
2021/04/25 02:44:30;;;;;;;17.35;7.13;;;;;;;8.11;47.45;102685.22;4915406;28;114562;-74
2021/04/25 02:46:57;;;;;;;14.82;6.80;;;;;;;8.07;47.20;102683.50;4916155;28;123856;-74
2021/04/25 02:49:25;;;;;;;13.85;6.85;;;;;;;8.04;47.27;102686.13;4914534;28;125179;-73
2021/04/25 02:51:52;;;;;;;14.30;6.90;;;;;;;8.00;47.18;102677.38;4915983;28;115038;-73
2021/04/25 02:54:19;;;;;;;12.13;6.90;;;;;;;7.97;47.24;102683.53;4913719;28;114287;-74
2021/04/25 02:56:45;;;;;;;11.98;6.80;;;;;;;7.95;47.01;102680.03;4897324;28;123638;-73
2021/04/25 02:59:12;;;;;;;11.48;6.45;;;;;;;7.94;47.44;102683.53;4909208;28;124537;-74
2021/04/25 03:01:39;;;;;;;15.05;6.47;;;;;;;7.91;47.49;102677.41;4910144;28;114353;-74
2021/04/25 03:04:05;;;;;;;15.38;6.57;;;;;;;7.88;47.44;102677.44;4914993;28;113045;-73
2021/04/25 03:06:32;;;;;;;14.88;6.78;;;;;;;7.84;47.36;102676.56;4918705;28;124306;-77
2021/04/25 03:08:59;;;;;;;12.57;6.13;;;;;;;7.81;47.46;102671.28;4912356;28;123639;-74
2021/04/25 03:11:25;;;;;;;10.80;5.93;;;;;;;7.81;47.46;102671.28;4921634;28;114660;-73
2021/04/25 03:13:52;;;;;;;11.95;6.53;;;;;;;7.79;47.90;102667.78;4918155;28;114371;-73
2021/04/25 03:16:20;;;;;;;11.27;5.82;;;;;;;7.79;47.87;102673.06;4914357;28;124256;-73
2021/04/25 03:18:46;;;;;;;13.80;6.70;;;;;;;7.79;48.40;102673.06;4918507;28;124366;-74
2021/04/25 03:21:13;;;;;;;12.38;5.78;;;;;;;7.80;48.73;102674.81;4917038;28;114971;-73
2021/04/25 03:23:40;;;;;;;11.65;6.40;;;;;;;7.83;49.00;102674.78;4921555;28;114254;-73
2021/04/25 03:26:07;;;;;;;16.52;5.95;;;;;;;7.85;48.85;102667.75;4913713;28;124541;-73
2021/04/25 03:28:34;;;;;;;10.88;5.43;;;;;;;7.89;48.99;102674.78;4908290;28;124545;-73
2021/04/25 03:31:00;;;;;;;13.00;6.30;;;;;;;7.93;48.91;102681.81;4898272;28;114005;-73
2021/04/25 03:33:27;;;;;;;11.40;5.22;;;;;;;7.96;48.74;102676.50;4913215;28;115284;-72
2021/04/25 03:35:54;;;;;;;13.35;5.55;;;;;;;8.01;48.69;102678.25;4915097;28;124744;-73
2021/04/25 03:38:28;;;;;;;9.88;5.18;;;;;;;8.05;48.73;102674.72;4924648;28;124354;-73
2021/04/25 03:40:56;;;;;;;12.73;5.85;;;;;;;8.10;48.76;102676.44;4892693;28;114063;-74
2021/04/25 03:43:24;;;;;;;12.68;5.38;;;;;;;8.16;48.57;102678.19;4894786;28;113491;-74
2021/04/25 03:45:50;;;;;;;11.02;5.07;;;;;;;8.21;48.36;102676.38;4898426;28;123788;-74
2021/04/25 03:48:17;;;;;;;10.05;5.07;;;;;;;8.25;48.35;102678.13;4885353;28;123731;-74
2021/04/25 03:50:44;;;;;;;10.90;5.50;;;;;;;8.30;48.18;102686.88;4893588;28;113937;-73
2021/04/25 03:53:10;;;;;;;10.30;5.55;;;;;;;8.33;48.33;102686.00;4875724;28;113467;-74
2021/04/25 03:55:37;;;;;;;10.75;4.93;;;;;;;8.35;48.26;102679.81;4890300;28;123935;-74
2021/04/25 03:58:04;;;;;;;10.70;5.40;;;;;;;8.36;48.11;102681.59;4892979;28;123744;-73
2021/04/25 04:00:31;;;;;;;14.05;6.05;;;;;;;8.36;47.88;102681.59;4892987;28;114047;-75
2021/04/25 04:02:58;;;;;;;14.18;5.97;;;;;;;8.36;47.72;102681.59;4875363;28;113395;-74
2021/04/25 04:05:24;;;;;;;10.35;5.15;;;;;;;8.37;47.59;102683.31;4889463;28;124292;-73
2021/04/25 04:07:51;;;;;;;8.38;5.00;;;;;;;8.36;47.65;102681.59;4892459;28;123787;-74
2021/04/25 04:10:18;;;;;;;10.63;5.15;;;;;;;8.36;47.24;102676.31;4891957;28;114290;-74
2021/04/25 04:12:46;;;;;;;11.65;4.80;;;;;;;8.35;47.50;102685.09;4892287;28;113768;-74
2021/04/25 04:15:13;;;;;;;10.18;4.95;;;;;;;8.34;47.27;102678.06;4889091;28;124506;-74
2021/04/25 04:17:40;;;;;;;8.88;4.07;;;;;;;8.34;47.02;102683.34;4891523;28;123975;-73
2021/04/25 04:20:07;;;;;;;12.38;4.50;;;;;;;8.32;46.88;102679.81;4890292;28;115122;-74
2021/04/25 04:22:34;;;;;;;10.45;4.68;;;;;;;8.30;47.10;102681.59;4891400;28;114207;-73
2021/04/25 04:25:01;;;;;;;13.73;4.82;;;;;;;8.29;47.06;102679.84;4896175;28;124448;-75
2021/04/25 04:27:28;;;;;;;9.60;4.40;;;;;;;8.29;46.68;102686.91;4880435;28;123803;-73
2021/04/25 04:29:54;;;;;;;7.93;3.58;;;;;;;8.29;46.70;102684.28;4896507;28;115149;-74
2021/04/25 04:32:21;;;;;;;9.02;4.00;;;;;;;8.28;46.65;102688.66;4866285;28;114150;-73
2021/04/25 04:34:53;;;;;;;10.15;4.00;;;;;;;8.29;46.77;102684.28;4877093;28;123401;-74
2021/04/25 04:37:20;;;;;;;9.80;4.10;;;;;;;8.27;46.82;102681.63;4895907;28;124133;-74
2021/04/25 04:39:46;;;;;;;8.13;4.30;;;;;;;8.26;46.79;102685.16;4878513;28;114600;-74
2021/04/25 04:42:13;;;;;;;10.48;4.13;;;;;;;8.26;46.54;102679.88;4896122;28;114539;-73
2021/04/25 04:44:39;;;;;;;11.18;3.40;;;;;;;8.25;46.31;102672.84;4877962;28;124115;-75
2021/04/25 04:47:06;;;;;;;11.82;4.40;;;;;;;8.25;45.97;102680.78;4893566;28;123952;-74
2021/04/25 04:49:35;;;;;;;7.63;4.13;;;;;;;8.24;46.33;102684.28;4883340;28;114959;-74
2021/04/25 04:52:02;;;;;;;8.73;4.38;;;;;;;8.25;45.86;102688.69;4879288;28;112939;-75
2021/04/25 04:54:29;;;;;;;8.55;4.10;;;;;;;8.28;45.92;102693.06;4895842;28;123145;-74
2021/04/25 04:56:55;;;;;;;10.45;4.28;;;;;;;8.30;46.08;102692.16;4895636;28;124189;-74
2021/04/25 04:59:22;;;;;;;7.68;3.80;;;;;;;8.34;46.03;102683.34;4882533;28;114087;-73
2021/04/25 05:01:49;;;;;;;10.45;4.07;;;;;;;8.38;46.15;102690.38;4895897;28;114123;-73
2021/04/25 05:04:16;;;;;;;9.10;3.80;;;;;;;8.42;45.81;102690.38;4885149;28;124687;-74
2021/04/25 05:06:42;;;;;;;10.50;3.97;;;;;;;8.47;45.77;102694.72;4888240;28;123722;-74
2021/04/25 05:09:09;;;;;;;10.52;4.18;;;;;;;8.53;45.95;102688.53;4893032;28;114059;-73
2021/04/25 05:11:36;;;;;;;9.45;3.85;;;;;;;8.58;45.87;102686.75;4891814;28;115879;-74
2021/04/25 05:14:02;;;;;;;6.32;3.40;;;;;;;8.62;45.46;102696.38;4882551;28;124112;-74
2021/04/25 05:16:29;;;;;;;11.52;3.90;;;;;;;8.66;45.81;102690.19;4894888;28;124247;-73
2021/04/25 05:18:56;;;;;;;10.60;3.90;;;;;;;8.69;45.54;102706.03;4894646;28;114656;-73
2021/04/25 05:21:23;;;;;;;13.57;3.65;;;;;;;8.71;45.28;102701.59;4895630;28;113784;-74
2021/04/25 05:23:50;;;;;;;11.52;3.67;;;;;;;8.76;45.36;102699.81;4908585;28;123932;-73
2021/04/25 05:26:17;;;;;;;11.45;4.05;;;;;;;8.81;45.13;102704.19;4894583;28;122555;-73
2021/04/25 05:28:43;;;;;;;8.20;3.47;;;;;;;8.82;45.26;102696.25;4894904;28;114676;-74
2021/04/25 05:31:10;;;;;;;6.97;3.80;;;;;;;8.87;44.91;102701.50;4880180;28;113153;-74
2021/04/25 05:33:37;;;;;;;8.45;4.07;;;;;;;8.91;45.12;102695.28;4894829;28;124097;-74
2021/04/25 05:36:03;;;;;;;8.65;3.70;;;;;;;8.95;45.27;102697.03;4895705;28;124208;-74
2021/04/25 05:38:30;;;;;;;10.27;3.70;;;;;;;9.00;45.04;102700.50;4894946;28;114493;-73
2021/04/25 05:40:56;;;;;;;7.97;3.63;;;;;;;9.03;44.82;102705.75;4895228;28;114725;-73
2021/04/25 05:43:23;;;;;;;7.22;3.67;;;;;;;9.09;45.05;102705.69;4877819;28;124078;-74
2021/04/25 05:45:49;;;;;;;10.32;3.65;;;;;;;9.14;44.69;102713.63;4894139;28;124187;-73
2021/04/25 05:48:16;;;;;;;10.23;3.78;;;;;;;9.19;45.17;102717.06;4893390;28;113438;-74
2021/04/25 05:50:43;;;;;;;10.90;3.70;;;;;;;9.25;45.19;102732.00;4894932;28;113940;-74
2021/04/25 05:53:10;;;;;;;8.45;3.70;;;;;;;9.29;44.60;102729.34;4895243;28;124073;-73
2021/04/25 05:55:36;;;;;;;8.32;3.78;;;;;;;9.33;44.76;102730.19;4894422;28;123931;-73
2021/04/25 05:58:03;;;;;;;9.77;3.47;;;;;;;9.39;44.69;102724.81;4884761;28;115222;-73
2021/04/25 06:00:32;;;;;;;9.73;3.22;;;;;;;9.41;44.45;102725.69;4894734;28;114208;-73
2021/04/25 06:02:59;;;;;;;10.63;3.97;;;;;;;9.44;44.59;102727.44;4884515;28;123123;-73
2021/04/25 06:05:27;;;;;;;6.78;3.10;;;;;;;9.46;44.33;102726.53;4894542;28;123778;-74
2021/04/25 06:07:54;;;;;;;9.13;3.83;;;;;;;9.48;44.40;102730.03;4895071;28;114419;-73
2021/04/25 06:10:21;;;;;;;9.00;3.88;;;;;;;9.51;44.19;102724.72;4893404;28;113908;-74
2021/04/25 06:12:50;;;;;;;8.50;3.28;;;;;;;9.53;44.24;102728.22;4877415;28;124397;-73
2021/04/25 06:15:19;;;;;;;8.90;3.30;;;;;;;9.54;44.20;102729.09;4858680;28;123252;-73
2021/04/25 06:17:46;;;;;;;6.63;3.25;;;;;;;9.55;44.06;102723.78;4893306;28;114520;-74
2021/04/25 06:20:13;;;;;;;9.32;3.08;;;;;;;9.58;43.97;102720.22;4894525;28;113864;-73
2021/04/25 06:22:41;;;;;;;9.48;3.22;;;;;;;9.59;43.61;102722.00;4880529;28;123559;-73
2021/04/25 06:25:09;;;;;;;8.00;3.80;;;;;;;9.61;43.79;102724.63;4893654;28;123042;-73
2021/04/25 06:27:40;;;;;;;7.47;3.10;;;;;;;9.62;43.42;102731.66;4894701;28;114013;-73
2021/04/25 06:30:09;;;;;;;8.68;3.50;;;;;;;9.61;43.53;102729.91;4893913;28;114583;-73
2021/04/25 06:32:36;;;;;;;9.40;3.33;;;;;;;9.61;43.72;102736.06;4881964;28;124748;-74
2021/04/25 06:35:04;;;;;;;10.23;3.55;;;;;;;9.64;43.46;102732.50;4894278;28;124707;-72
2021/04/25 06:37:31;;;;;;;7.65;3.28;;;;;;;9.66;43.36;102733.38;4876972;28;113043;-74
2021/04/25 06:39:57;;;;;;;7.68;3.30;;;;;;;9.69;43.91;102733.34;4894110;28;113843;-73
2021/04/25 06:42:24;;;;;;;9.20;3.55;;;;;;;9.73;43.60;102745.63;4880536;28;124230;-73
2021/04/25 06:44:51;;;;;;;7.13;3.35;;;;;;;9.76;43.61;102740.31;4894573;28;123667;-73
2021/04/25 06:47:17;;;;;;;9.15;3.70;;;;;;;9.79;43.23;102740.28;4876050;28;114686;-73
2021/04/25 06:49:44;;;;;;;7.90;3.35;;;;;;;9.82;43.51;102756.13;4876861;28;113035;-73
2021/04/25 06:52:12;;;;;;;8.23;3.50;;;;;;;9.84;43.35;102749.03;4893329;28;124098;-73
2021/04/25 06:54:39;;;;;;;12.25;4.07;;;;;;;9.88;43.53;102753.41;4864788;28;125117;-73
2021/04/25 06:57:06;;;;;;;10.10;4.50;;;;;;;9.91;43.61;102758.66;4894139;28;114259;-73
2021/04/25 06:59:33;;;;;;;8.65;3.78;;;;;;;9.91;43.36;102758.66;4894098;28;113997;-73
2021/04/25 07:02:00;;;;;;;7.10;3.42;;;;;;;9.95;43.78;102767.47;4893391;28;123138;-72
2021/04/25 07:04:27;;;;;;;10.07;3.60;;;;;;;10.00;43.34;102759.44;4861478;28;123651;-73
2021/04/25 07:06:53;;;;;;;8.27;3.45;;;;;;;10.02;43.37;102762.94;4875813;28;114759;-73
2021/04/25 07:09:20;;;;;;;9.75;3.60;;;;;;;10.07;43.50;102767.28;4890318;28;114222;-74
2021/04/25 07:11:46;;;;;;;8.88;3.08;;;;;;;10.11;43.33;102768.13;4893016;28;124097;-73
2021/04/25 07:14:13;;;;;;;9.20;3.03;;;;;;;10.16;43.18;102771.63;4893618;28;124327;-73
2021/04/25 07:16:39;;;;;;;10.75;3.50;;;;;;;10.19;43.19;102771.59;4876809;28;113682;-72
2021/04/25 07:19:06;;;;;;;8.38;3.30;;;;;;;10.25;43.08;102763.56;4893161;28;114869;-73
2021/04/25 07:21:33;;;;;;;5.55;3.03;;;;;;;10.29;42.84;102767.03;4892419;28;123937;-73
2021/04/25 07:23:59;;;;;;;6.90;2.92;;;;;;;10.32;43.09;102767.03;4893939;28;124517;-73
2021/04/25 07:26:27;;;;;;;9.82;3.60;;;;;;;10.37;42.80;102764.31;4886429;28;113944;-73
2021/04/25 07:28:54;;;;;;;8.95;3.30;;;;;;;10.41;42.84;102760.75;4873472;28;114203;-74
2021/04/25 07:31:21;;;;;;;11.07;3.00;;;;;;;10.44;43.29;102766.00;4885533;28;123401;-74
2021/04/25 07:33:47;;;;;;;7.72;3.13;;;;;;;10.49;43.02;102759.75;4889619;28;123774;-74
2021/04/25 07:36:14;;;;;;;8.15;3.10;;;;;;;10.54;42.99;102767.63;4876233;28;115485;-73
2021/04/25 07:38:41;;;;;;;11.82;3.50;;;;;;;10.59;42.57;102767.56;4892632;28;115898;-74
2021/04/25 07:41:08;;;;;;;6.68;2.70;;;;;;;10.59;42.11;102771.09;4880865;28;123379;-72
2021/04/25 07:43:35;;;;;;;7.55;2.75;;;;;;;10.59;42.23;102760.50;4893171;28;125243;-71
2021/04/25 07:46:02;;;;;;;7.28;2.85;;;;;;;10.60;42.12;102770.16;4888992;28;112710;-72
2021/04/25 07:48:29;;;;;;;8.48;2.70;;;;;;;10.62;41.98;102760.44;4892777;28;114094;-72
2021/04/25 07:50:55;;;;;;;10.90;2.65;;;;;;;10.67;42.38;102769.19;4887334;28;123036;-72
2021/04/25 07:53:22;;;;;;;7.07;3.00;;;;;;;10.75;42.41;102760.25;4893628;28;123092;-72
2021/04/25 07:55:49;;;;;;;7.65;3.17;;;;;;;10.83;42.01;102764.56;4891412;28;114744;-72
2021/04/25 07:58:15;;;;;;;8.48;3.10;;;;;;;10.88;41.84;102767.13;4893141;28;113998;-71
2021/04/25 08:00:42;;;;;;;9.10;3.00;;;;;;;10.94;41.71;102756.41;4891967;28;124566;-72
2021/04/25 08:03:08;;;;;;;7.18;2.90;;;;;;;11.03;42.25;102766.88;4892788;28;123948;-72
2021/04/25 08:05:35;;;;;;;8.52;3.35;;;;;;;11.16;41.80;102756.94;4879915;28;114369;-72
2021/04/25 08:08:03;;;;;;;8.88;2.78;;;;;;;11.24;41.39;102763.00;4892818;28;114250;-72
2021/04/25 08:10:29;;;;;;;9.13;3.05;;;;;;;11.30;41.21;102762.00;4892449;28;124280;-71
2021/04/25 08:12:56;;;;;;;9.82;2.90;;;;;;;11.34;40.62;102758.44;4892507;28;124611;-71
2021/04/25 08:15:24;;;;;;;6.90;2.95;;;;;;;11.35;40.58;102757.50;4893205;28;114187;-72
2021/04/25 08:17:52;;;;;;;6.50;2.90;;;;;;;11.37;40.43;102754.84;4875319;28;113519;-72
2021/04/25 08:20:18;;;;;;;8.82;3.17;;;;;;;11.40;40.82;102760.97;4892224;28;123480;-72
2021/04/25 08:22:45;;;;;;;7.05;3.17;;;;;;;11.45;40.76;102758.22;4891112;28;123682;-71
2021/04/25 08:25:12;;;;;;;9.95;3.08;;;;;;;11.48;40.11;102759.03;4875350;28;115428;-72
2021/04/25 08:27:39;;;;;;;10.45;2.92;;;;;;;11.47;39.97;102757.31;4875278;28;114611;-72
2021/04/25 08:30:06;;;;;;;7.45;2.58;;;;;;;11.43;40.53;102760.94;4876653;28;124416;-71
2021/04/25 08:32:33;;;;;;;7.07;2.78;;;;;;;11.46;40.39;102757.31;4879573;28;123040;-72
2021/04/25 08:35:00;;;;;;;12.50;3.10;;;;;;;11.52;40.56;102753.69;4891974;28;114508;-71
2021/04/25 08:37:27;;;;;;;8.40;2.70;;;;;;;11.58;40.41;102758.88;4897871;28;113852;-72
2021/04/25 08:39:53;;;;;;;8.05;3.17;;;;;;;11.63;40.14;102757.03;4859251;28;123068;-72
2021/04/25 08:42:20;;;;;;;9.98;2.80;;;;;;;11.63;39.98;102762.31;4898402;28;123930;-72
2021/04/25 08:44:46;;;;;;;9.32;2.95;;;;;;;11.62;39.83;102765.88;4875122;28;113404;-72
2021/04/25 08:47:13;;;;;;;7.25;2.92;;;;;;;11.60;39.67;102773.00;4892533;28;113425;-72
2021/04/25 08:49:42;;;;;;;9.02;3.17;;;;;;;11.57;39.56;102768.63;4892112;28;124129;-72
2021/04/25 08:52:10;;;;;;;7.35;2.70;;;;;;;11.54;39.58;102762.50;4892652;28;123701;-72
2021/04/25 08:54:37;;;;;;;7.60;3.33;;;;;;;11.52;40.03;102764.31;4892596;28;115290;-71
2021/04/25 08:57:04;;;;;;;7.72;3.05;;;;;;;11.55;40.18;102765.13;4875268;28;113597;-71
2021/04/25 08:59:31;;;;;;;7.72;2.53;;;;;;;11.55;39.64;102765.13;4873311;28;124250;-71
2021/04/25 09:01:57;;;;;;;9.10;2.78;;;;;;;11.59;39.79;102760.66;4891674;28;123673;-72
2021/04/25 09:04:24;;;;;;;11.48;2.63;;;;;;;11.68;40.27;102758.69;4875143;28;113356;-74
2021/04/25 09:07:12;;;;;;;6.18;2.40;;;;;;;11.82;39.95;102758.41;4892814;28;114134;-73
2021/04/25 09:09:46;;;;;;;6.70;2.60;;;;;;;11.95;40.11;102758.22;4891350;28;124631;-73
2021/04/25 09:12:29;;;;;;;8.60;2.53;;;;;;;12.03;39.81;102748.31;4894987;28;123921;-73
2021/04/25 09:14:56;;;;;;;7.25;2.17;;;;;;;12.12;39.75;102756.09;4894133;28;114806;-73
2021/04/25 09:17:23;;;;;;;6.57;2.40;;;;;;;12.19;39.71;102746.22;4877802;28;115166;-73
2021/04/25 09:19:56;;;;;;;9.32;2.47;;;;;;;12.25;39.38;102751.38;4877984;28;124188;-72
2021/04/25 09:22:43;;;;;;;7.68;2.30;;;;;;;12.29;39.44;102749.56;4901790;28;123827;-73
2021/04/25 09:25:12;;;;;;;6.07;2.20;;;;;;;12.35;39.32;102744.97;4895529;28;114130;-73
2021/04/25 09:27:41;;;;;;;8.88;2.30;;;;;;;12.42;39.45;102743.06;4865870;28;113688;-73
2021/04/25 09:30:10;;;;;;;7.57;2.03;;;;;;;12.55;39.47;102749.84;4877591;28;124343;-73
2021/04/25 09:32:37;;;;;;;7.95;1.95;;;;;;;12.70;38.57;102745.09;4894834;28;123768;-73
2021/04/25 09:35:10;;;;;;;12.10;2.38;;;;;;;12.82;38.78;102736.81;4878093;28;114631;-70
2021/04/25 09:37:41;;;;;;;7.55;2.10;;;;;;;12.94;38.36;102752.47;4893350;28;113777;-70
2021/04/25 09:40:11;;;;;;;7.70;1.92;;;;;;;13.04;38.50;102742.47;4900709;23;124376;-73
2021/04/25 09:42:56;;;;;;;8.75;1.83;;;;;;;13.17;38.80;102743.06;4897877;28;124435;-72
2021/04/25 09:45:25;;;;;;;8.40;2.10;;;;;;;13.32;38.35;102737.38;4897674;28;114594;-72
2021/04/25 09:47:53;;;;;;;4.97;1.77;;;;;;;13.49;38.59;102733.41;4885836;28;113255;-72
2021/04/25 09:50:21;;;;;;;9.60;2.40;;;;;;;13.67;38.47;102727.53;4896683;28;124105;-74
2021/04/25 09:52:50;;;;;;;7.43;2.30;;;;;;;13.82;38.20;102735.13;4896939;28;123643;-74
2021/04/25 09:55:24;;;;;;;7.68;2.20;;;;;;;13.86;37.27;102737.69;4878246;28;114200;-74
2021/04/25 09:57:56;;;;;;;7.30;2.13;;;;;;;13.81;36.64;102738.69;4896166;28;113061;-73
2021/04/25 10:00:37;;;;;;;6.35;2.00;;;;;;;13.62;36.28;102746.31;4894840;28;123820;-73
2021/04/25 10:03:10;;;;;;;8.80;2.20;;;;;;;13.50;36.25;102751.09;4872134;28;123600;-73
2021/04/25 10:05:39;;;;;;;7.50;2.20;;;;;;;13.41;37.12;102737.13;4872906;28;114389;-72
2021/04/25 10:08:25;;;;;;;7.70;2.15;;;;;;;13.40;36.78;102740.69;4884521;28;114728;-74
2021/04/25 10:10:52;;;;;;;8.73;2.45;;;;;;;13.40;36.96;102740.69;4872102;28;122325;-72
2021/04/25 10:13:19;;;;;;;5.57;1.80;;;;;;;13.44;36.79;102741.47;4884427;28;123426;-73
2021/04/25 10:15:46;;;;;;;7.65;2.03;;;;;;;13.49;37.24;102733.41;4892143;28;114513;-73
2021/04/25 10:18:16;;;;;;;6.35;1.80;;;;;;;13.60;37.07;102726.00;4869434;28;113111;-73
2021/04/25 10:20:43;;;;;;;6.80;2.25;;;;;;;13.71;37.06;102731.88;4895187;28;123948;-72
2021/04/25 10:23:11;;;;;;;7.78;2.17;;;;;;;13.83;37.04;102722.69;4874640;28;124251;-74
2021/04/25 10:25:38;;;;;;;8.52;2.30;;;;;;;13.94;37.00;102735.69;4895183;28;114702;-72
2021/04/25 10:28:29;;;;;;;8.07;2.30;;;;;;;14.08;37.31;102732.63;4862330;28;113028;-73
2021/04/25 10:31:05;;;;;;;6.18;1.80;;;;;;;14.24;36.75;102730.34;4877052;28;124172;-74
2021/04/25 10:34:02;;;;;;;10.45;2.75;;;;;;;14.36;36.52;102722.00;4895040;28;124219;-73
2021/04/25 10:36:50;;;;;;;6.45;2.20;;;;;;;14.46;36.63;102723.44;4893385;28;114335;-73
2021/04/25 10:39:56;;;;;;;10.60;2.33;;;;;;;14.52;36.37;102723.28;4884787;28;113707;-72
2021/04/25 10:42:26;;;;;;;8.82;2.10;;;;;;;14.59;35.78;102718.63;4884932;28;123759;-73
2021/04/25 10:44:56;;;;;;;6.85;2.22;;;;;;;14.66;35.51;102708.66;4877299;28;124883;-72
2021/04/25 10:47:33;;;;;;;7.07;1.98;;;;;;;14.71;35.55;102704.03;4890652;28;116238;-73
2021/04/25 10:50:09;;;;;;;8.68;2.30;;;;;;;14.76;35.37;102704.75;4876909;28;113392;-73
2021/04/25 10:52:36;;;;;;;4.90;2.00;;;;;;;14.80;34.77;102706.41;4877315;28;123749;-73
2021/04/25 10:55:24;;;;;;;7.82;2.15;;;;;;;14.74;34.80;102695.94;4861761;28;123397;-72
2021/04/25 10:57:51;;;;;;;8.30;2.20;;;;;;;14.63;34.97;102698.06;4891826;28;118311;-72
2021/04/25 11:00:30;;;;;;;6.80;2.22;;;;;;;14.57;35.01;102689.34;4891868;28;114589;-72
2021/04/25 11:03:20;;;;;;;8.23;2.00;;;;;;;14.54;35.16;102684.09;4888400;28;124544;-73
2021/04/25 11:05:49;;;;;;;6.50;2.33;;;;;;;14.51;34.99;102700.19;4874090;28;123011;-73
2021/04/25 11:08:16;;;;;;;7.10;2.22;;;;;;;14.49;35.34;102691.38;4877585;28;113490;-73
2021/04/25 11:10:48;;;;;;;6.75;2.00;;;;;;;14.51;35.16;102694.84;4877239;28;114639;-73
2021/04/25 11:13:34;;;;;;;7.43;2.03;;;;;;;14.54;35.42;102689.44;4861514;28;123542;-74
2021/04/25 11:16:05;;;;;;;8.73;2.35;;;;;;;14.59;35.19;102682.16;4894373;28;123635;-72
2021/04/25 11:18:53;;;;;;;9.00;2.42;;;;;;;14.63;35.29;102679.41;4876851;28;114367;-74
2021/04/25 11:21:27;;;;;;;10.45;2.28;;;;;;;14.69;35.25;102682.78;4875474;28;113560;-72
2021/04/25 11:23:54;;;;;;;7.45;2.28;;;;;;;14.74;35.02;102674.59;4886132;28;124100;-75
2021/04/25 11:26:47;;;;;;;9.40;2.20;;;;;;;14.82;35.09;102666.34;4870469;28;123588;-73